sensor_id;sensor_type;location;lat;lon;timestamp;temperature;humidity
76789;DHT22;65740;52.464;13.446;2023-02-27T00:00:59;18.50;38.20
76789;DHT22;65740;52.464;13.446;2023-02-27T00:03:26;18.50;38.20
76789;DHT22;65740;52.464;13.446;2023-02-27T00:05:52;18.40;38.10
76789;DHT22;65740;52.464;13.446;2023-02-27T00:08:17;18.40;38.30
76789;DHT22;65740;52.464;13.446;2023-02-27T00:10:43;18.40;38.10
76789;DHT22;65740;52.464;13.446;2023-02-27T00:13:09;18.40;38.10
76789;DHT22;65740;52.464;13.446;2023-02-27T00:15:35;18.40;38.10
76789;DHT22;65740;52.464;13.446;2023-02-27T00:18:03;18.40;38.10
76789;DHT22;65740;52.464;13.446;2023-02-27T00:20:29;18.40;38.00
76789;DHT22;65740;52.464;13.446;2023-02-27T00:22:56;18.40;38.00
76789;DHT22;65740;52.464;13.446;2023-02-27T00:25:22;18.40;37.90
76789;DHT22;65740;52.464;13.446;2023-02-27T00:27:47;18.40;38.00
76789;DHT22;65740;52.464;13.446;2023-02-27T00:30:14;18.40;37.90
76789;DHT22;65740;52.464;13.446;2023-02-27T00:32:40;18.40;37.80
76789;DHT22;65740;52.464;13.446;2023-02-27T00:35:08;18.40;37.90
76789;DHT22;65740;52.464;13.446;2023-02-27T00:37:34;18.40;37.80
76789;DHT22;65740;52.464;13.446;2023-02-27T00:40:00;18.40;37.80
76789;DHT22;65740;52.464;13.446;2023-02-27T00:42:26;18.40;38.50
76789;DHT22;65740;52.464;13.446;2023-02-27T00:44:53;18.40;38.50
76789;DHT22;65740;52.464;13.446;2023-02-27T00:47:19;18.40;37.90
76789;DHT22;65740;52.464;13.446;2023-02-27T00:49:44;18.40;37.80
76789;DHT22;65740;52.464;13.446;2023-02-27T00:52:10;18.40;37.70
76789;DHT22;65740;52.464;13.446;2023-02-27T00:54:36;18.40;37.80
76789;DHT22;65740;52.464;13.446;2023-02-27T00:57:01;18.40;37.70
76789;DHT22;65740;52.464;13.446;2023-02-27T00:59:27;18.30;37.60
76789;DHT22;65740;52.464;13.446;2023-02-27T01:01:52;18.30;37.70
76789;DHT22;65740;52.464;13.446;2023-02-27T01:04:18;18.30;37.60
76789;DHT22;65740;52.464;13.446;2023-02-27T01:06:44;18.30;37.60
76789;DHT22;65740;52.464;13.446;2023-02-27T01:09:10;18.30;37.70
76789;DHT22;65740;52.464;13.446;2023-02-27T01:11:35;18.30;37.60
76789;DHT22;65740;52.464;13.446;2023-02-27T01:14:01;18.30;37.70
76789;DHT22;65740;52.464;13.446;2023-02-27T01:16:27;18.30;37.70
76789;DHT22;65740;52.464;13.446;2023-02-27T01:18:52;18.40;37.80
76789;DHT22;65740;52.464;13.446;2023-02-27T01:21:18;18.30;37.60
76789;DHT22;65740;52.464;13.446;2023-02-27T01:23:44;18.30;37.50
76789;DHT22;65740;52.464;13.446;2023-02-27T01:26:09;18.30;37.60
76789;DHT22;65740;52.464;13.446;2023-02-27T01:28:35;18.30;37.60
76789;DHT22;65740;52.464;13.446;2023-02-27T01:31:01;18.30;37.60
76789;DHT22;65740;52.464;13.446;2023-02-27T01:33:26;18.30;37.50
76789;DHT22;65740;52.464;13.446;2023-02-27T01:35:52;18.30;37.50
76789;DHT22;65740;52.464;13.446;2023-02-27T01:38:18;18.30;37.50
76789;DHT22;65740;52.464;13.446;2023-02-27T01:40:43;18.30;37.70
76789;DHT22;65740;52.464;13.446;2023-02-27T01:43:17;18.30;37.60
76789;DHT22;65740;52.464;13.446;2023-02-27T01:45:44;18.30;37.50
76789;DHT22;65740;52.464;13.446;2023-02-27T01:50:51;18.30;37.40
76789;DHT22;65740;52.464;13.446;2023-02-27T01:53:18;18.30;37.50
76789;DHT22;65740;52.464;13.446;2023-02-27T01:55:46;18.30;37.50
76789;DHT22;65740;52.464;13.446;2023-02-27T01:58:12;18.20;37.40
76789;DHT22;65740;52.464;13.446;2023-02-27T02:00:39;18.20;37.30
76789;DHT22;65740;52.464;13.446;2023-02-27T02:03:17;18.20;37.30
76789;DHT22;65740;52.464;13.446;2023-02-27T02:05:44;18.30;37.30
76789;DHT22;65740;52.464;13.446;2023-02-27T02:08:14;18.30;37.40
76789;DHT22;65740;52.464;13.446;2023-02-27T02:10:42;18.20;38.00
76789;DHT22;65740;52.464;13.446;2023-02-27T02:13:08;18.20;37.20
76789;DHT22;65740;52.464;13.446;2023-02-27T02:15:40;18.20;37.20
76789;DHT22;65740;52.464;13.446;2023-02-27T02:18:51;18.20;37.20
76789;DHT22;65740;52.464;13.446;2023-02-27T02:26:50;18.20;37.10
76789;DHT22;65740;52.464;13.446;2023-02-27T02:40:42;18.20;37.20
76789;DHT22;65740;52.464;13.446;2023-02-27T02:43:35;18.20;37.10
76789;DHT22;65740;52.464;13.446;2023-02-27T02:49:11;18.20;37.20
76789;DHT22;65740;52.464;13.446;2023-02-27T02:52:00;18.20;37.10
76789;DHT22;65740;52.464;13.446;2023-02-27T02:57:25;18.20;37.10
76789;DHT22;65740;52.464;13.446;2023-02-27T03:00:00;18.10;37.00
76789;DHT22;65740;52.464;13.446;2023-02-27T03:02:31;18.10;37.10
76789;DHT22;65740;52.464;13.446;2023-02-27T03:07:52;18.10;36.90
76789;DHT22;65740;52.464;13.446;2023-02-27T03:10:27;18.10;36.90
76789;DHT22;65740;52.464;13.446;2023-02-27T03:13:25;18.10;36.80
76789;DHT22;65740;52.464;13.446;2023-02-27T03:16:13;18.10;36.90
76789;DHT22;65740;52.464;13.446;2023-02-27T03:18:49;18.10;36.80
76789;DHT22;65740;52.464;13.446;2023-02-27T03:21:28;18.10;36.90
76789;DHT22;65740;52.464;13.446;2023-02-27T03:23:57;18.10;36.80
76789;DHT22;65740;52.464;13.446;2023-02-27T03:26:31;18.10;36.70
76789;DHT22;65740;52.464;13.446;2023-02-27T03:29:05;18.10;36.60
76789;DHT22;65740;52.464;13.446;2023-02-27T03:31:52;18.10;36.70
76789;DHT22;65740;52.464;13.446;2023-02-27T03:34:31;18.10;36.60
76789;DHT22;65740;52.464;13.446;2023-02-27T03:39:45;18.00;36.30
76789;DHT22;65740;52.464;13.446;2023-02-27T03:42:25;18.00;36.40
76789;DHT22;65740;52.464;13.446;2023-02-27T03:45:04;18.00;36.40
76789;DHT22;65740;52.464;13.446;2023-02-27T03:47:33;18.00;36.40
76789;DHT22;65740;52.464;13.446;2023-02-27T03:49:59;18.00;36.50
76789;DHT22;65740;52.464;13.446;2023-02-27T03:52:27;18.00;36.50
76789;DHT22;65740;52.464;13.446;2023-02-27T03:57:30;18.00;36.60
76789;DHT22;65740;52.464;13.446;2023-02-27T03:59:56;18.00;36.70
76789;DHT22;65740;52.464;13.446;2023-02-27T04:02:22;18.00;36.50
76789;DHT22;65740;52.464;13.446;2023-02-27T04:04:48;18.00;36.50
76789;DHT22;65740;52.464;13.446;2023-02-27T04:07:16;18.00;37.20
76789;DHT22;65740;52.464;13.446;2023-02-27T04:15:17;18.00;36.30
76789;DHT22;65740;52.464;13.446;2023-02-27T04:20:40;18.00;36.40
76789;DHT22;65740;52.464;13.446;2023-02-27T04:23:22;18.00;36.30
76789;DHT22;65740;52.464;13.446;2023-02-27T04:31:11;18.00;36.30
76789;DHT22;65740;52.464;13.446;2023-02-27T04:34:10;17.90;36.30
76789;DHT22;65740;52.464;13.446;2023-02-27T04:36:43;17.90;36.20
76789;DHT22;65740;52.464;13.446;2023-02-27T04:39:23;17.90;36.20
76789;DHT22;65740;52.464;13.446;2023-02-27T04:42:00;17.90;36.00
76789;DHT22;65740;52.464;13.446;2023-02-27T04:44:27;17.90;36.20
76789;DHT22;65740;52.464;13.446;2023-02-27T04:46:57;17.90;36.20
76789;DHT22;65740;52.464;13.446;2023-02-27T04:49:50;18.00;36.10
76789;DHT22;65740;52.464;13.446;2023-02-27T04:52:24;17.90;36.00
76789;DHT22;65740;52.464;13.446;2023-02-27T04:55:02;17.90;35.90
76789;DHT22;65740;52.464;13.446;2023-02-27T04:57:35;17.90;35.70
76789;DHT22;65740;52.464;13.446;2023-02-27T05:00:04;17.90;35.80
76789;DHT22;65740;52.464;13.446;2023-02-27T05:02:37;17.90;35.70
76789;DHT22;65740;52.464;13.446;2023-02-27T05:05:09;17.90;35.80
76789;DHT22;65740;52.464;13.446;2023-02-27T05:07:44;17.80;35.70
76789;DHT22;65740;52.464;13.446;2023-02-27T05:10:36;17.80;35.70
76789;DHT22;65740;52.464;13.446;2023-02-27T05:13:14;17.80;35.70
76789;DHT22;65740;52.464;13.446;2023-02-27T05:16:02;17.80;35.70
76789;DHT22;65740;52.464;13.446;2023-02-27T05:18:30;17.80;35.70
76789;DHT22;65740;52.464;13.446;2023-02-27T05:24:13;17.80;35.90
76789;DHT22;65740;52.464;13.446;2023-02-27T05:29:50;17.80;35.90
76789;DHT22;65740;52.464;13.446;2023-02-27T05:32:40;17.80;35.90
76789;DHT22;65740;52.464;13.446;2023-02-27T05:35:19;17.90;36.00
76789;DHT22;65740;52.464;13.446;2023-02-27T05:37:58;17.80;35.80
76789;DHT22;65740;52.464;13.446;2023-02-27T05:40:33;17.80;35.80
76789;DHT22;65740;52.464;13.446;2023-02-27T05:43:49;17.80;35.80
76789;DHT22;65740;52.464;13.446;2023-02-27T05:46:20;17.80;35.70
76789;DHT22;65740;52.464;13.446;2023-02-27T05:49:00;17.80;35.70
76789;DHT22;65740;52.464;13.446;2023-02-27T05:51:30;17.80;35.60
76789;DHT22;65740;52.464;13.446;2023-02-27T05:54:02;17.80;35.70
76789;DHT22;65740;52.464;13.446;2023-02-27T05:56:32;17.80;35.70
76789;DHT22;65740;52.464;13.446;2023-02-27T06:00:02;17.80;35.70
76789;DHT22;65740;52.464;13.446;2023-02-27T06:02:09;17.80;35.70
76789;DHT22;65740;52.464;13.446;2023-02-27T06:04:35;17.80;35.70
76789;DHT22;65740;52.464;13.446;2023-02-27T06:07:01;17.80;35.70
76789;DHT22;65740;52.464;13.446;2023-02-27T06:09:29;17.80;35.70
76789;DHT22;65740;52.464;13.446;2023-02-27T06:11:55;17.80;35.70
76789;DHT22;65740;52.464;13.446;2023-02-27T06:14:21;17.80;35.70
76789;DHT22;65740;52.464;13.446;2023-02-27T06:16:47;17.80;35.60
76789;DHT22;65740;52.464;13.446;2023-02-27T06:19:12;17.80;35.70
76789;DHT22;65740;52.464;13.446;2023-02-27T06:21:38;17.80;35.70
76789;DHT22;65740;52.464;13.446;2023-02-27T06:24:04;17.80;35.70
76789;DHT22;65740;52.464;13.446;2023-02-27T06:26:29;17.70;35.60
76789;DHT22;65740;52.464;13.446;2023-02-27T06:28:55;17.80;35.70
76789;DHT22;65740;52.464;13.446;2023-02-27T06:31:20;17.70;35.50
76789;DHT22;65740;52.464;13.446;2023-02-27T06:33:46;17.70;35.60
76789;DHT22;65740;52.464;13.446;2023-02-27T06:36:12;17.70;35.60
76789;DHT22;65740;52.464;13.446;2023-02-27T06:38:37;17.70;35.60
76789;DHT22;65740;52.464;13.446;2023-02-27T06:41:03;17.70;35.60
76789;DHT22;65740;52.464;13.446;2023-02-27T06:43:29;17.70;35.60
76789;DHT22;65740;52.464;13.446;2023-02-27T06:45:55;17.70;35.60
76789;DHT22;65740;52.464;13.446;2023-02-27T06:48:21;17.70;35.60
76789;DHT22;65740;52.464;13.446;2023-02-27T06:50:54;17.70;35.60
76789;DHT22;65740;52.464;13.446;2023-02-27T06:53:21;17.70;35.60
76789;DHT22;65740;52.464;13.446;2023-02-27T06:55:47;17.70;35.60
76789;DHT22;65740;52.464;13.446;2023-02-27T06:58:12;17.70;35.60
76789;DHT22;65740;52.464;13.446;2023-02-27T07:00:38;17.70;35.60
76789;DHT22;65740;52.464;13.446;2023-02-27T07:03:04;17.70;35.50
76789;DHT22;65740;52.464;13.446;2023-02-27T07:05:30;17.70;35.60
76789;DHT22;65740;52.464;13.446;2023-02-27T07:07:56;17.70;35.60
76789;DHT22;65740;52.464;13.446;2023-02-27T07:10:23;17.70;35.60
76789;DHT22;65740;52.464;13.446;2023-02-27T07:12:48;17.70;35.50
76789;DHT22;65740;52.464;13.446;2023-02-27T07:15:14;17.70;35.60
76789;DHT22;65740;52.464;13.446;2023-02-27T07:17:40;17.70;35.60
76789;DHT22;65740;52.464;13.446;2023-02-27T07:20:07;17.70;35.60
76789;DHT22;65740;52.464;13.446;2023-02-27T07:22:35;17.70;35.60
76789;DHT22;65740;52.464;13.446;2023-02-27T07:25:00;17.70;35.50
76789;DHT22;65740;52.464;13.446;2023-02-27T07:27:26;17.70;36.30
76789;DHT22;65740;52.464;13.446;2023-02-27T07:29:51;17.70;35.60
76789;DHT22;65740;52.464;13.446;2023-02-27T07:32:18;17.70;35.60
76789;DHT22;65740;52.464;13.446;2023-02-27T07:34:44;17.70;35.60
76789;DHT22;65740;52.464;13.446;2023-02-27T07:37:10;17.70;36.30
76789;DHT22;65740;52.464;13.446;2023-02-27T07:39:35;17.70;35.50
76789;DHT22;65740;52.464;13.446;2023-02-27T07:42:01;17.70;35.60
76789;DHT22;65740;52.464;13.446;2023-02-27T07:44:27;17.70;35.60
76789;DHT22;65740;52.464;13.446;2023-02-27T07:46:52;17.70;35.60
76789;DHT22;65740;52.464;13.446;2023-02-27T07:49:18;17.70;35.60
76789;DHT22;65740;52.464;13.446;2023-02-27T07:51:44;17.70;35.50
76789;DHT22;65740;52.464;13.446;2023-02-27T07:54:09;17.70;35.60
76789;DHT22;65740;52.464;13.446;2023-02-27T07:56:35;17.60;35.50
76789;DHT22;65740;52.464;13.446;2023-02-27T07:59:00;17.70;35.50
76789;DHT22;65740;52.464;13.446;2023-02-27T08:01:26;17.70;35.60
76789;DHT22;65740;52.464;13.446;2023-02-27T08:03:52;17.60;35.50
76789;DHT22;65740;52.464;13.446;2023-02-27T08:06:17;17.60;35.50
76789;DHT22;65740;52.464;13.446;2023-02-27T08:08:43;17.60;35.50
76789;DHT22;65740;52.464;13.446;2023-02-27T08:11:10;17.60;35.50
76789;DHT22;65740;52.464;13.446;2023-02-27T08:13:35;17.60;35.50
76789;DHT22;65740;52.464;13.446;2023-02-27T08:16:01;17.60;35.50
76789;DHT22;65740;52.464;13.446;2023-02-27T08:18:26;17.60;35.50
76789;DHT22;65740;52.464;13.446;2023-02-27T08:20:54;17.70;35.60
76789;DHT22;65740;52.464;13.446;2023-02-27T08:23:20;17.70;35.50
76789;DHT22;65740;52.464;13.446;2023-02-27T08:25:46;17.70;35.60
76789;DHT22;65740;52.464;13.446;2023-02-27T08:28:11;17.70;35.60
76789;DHT22;65740;52.464;13.446;2023-02-27T08:30:37;17.70;35.60
76789;DHT22;65740;52.464;13.446;2023-02-27T08:33:02;17.70;35.60
76789;DHT22;65740;52.464;13.446;2023-02-27T08:35:28;17.70;35.60
76789;DHT22;65740;52.464;13.446;2023-02-27T08:37:54;17.70;35.60
76789;DHT22;65740;52.464;13.446;2023-02-27T08:40:20;17.70;35.60
76789;DHT22;65740;52.464;13.446;2023-02-27T08:42:46;17.70;35.60
76789;DHT22;65740;52.464;13.446;2023-02-27T08:45:12;17.70;35.60
76789;DHT22;65740;52.464;13.446;2023-02-27T08:47:37;17.70;35.70
76789;DHT22;65740;52.464;13.446;2023-02-27T08:50:04;17.80;35.70
76789;DHT22;65740;52.464;13.446;2023-02-27T08:52:30;17.80;35.70
76789;DHT22;65740;52.464;13.446;2023-02-27T08:54:56;17.80;35.80
76789;DHT22;65740;52.464;13.446;2023-02-27T08:57:22;17.80;35.70
76789;DHT22;65740;52.464;13.446;2023-02-27T08:59:48;17.80;35.70
76789;DHT22;65740;52.464;13.446;2023-02-27T09:02:14;17.80;35.70
76789;DHT22;65740;52.464;13.446;2023-02-27T09:04:40;17.80;35.70
76789;DHT22;65740;52.464;13.446;2023-02-27T09:07:06;17.80;35.70
76789;DHT22;65740;52.464;13.446;2023-02-27T09:09:32;17.80;35.90
76789;DHT22;65740;52.464;13.446;2023-02-27T09:11:58;17.80;35.90
76789;DHT22;65740;52.464;13.446;2023-02-27T09:14:24;17.80;36.00
76789;DHT22;65740;52.464;13.446;2023-02-27T09:16:49;17.80;35.90
76789;DHT22;65740;52.464;13.446;2023-02-27T09:19:15;17.80;35.80
76789;DHT22;65740;52.464;13.446;2023-02-27T09:21:41;17.90;36.30
76789;DHT22;65740;52.464;13.446;2023-02-27T09:24:07;17.80;36.30
76789;DHT22;65740;52.464;13.446;2023-02-27T09:26:35;17.80;36.50
76789;DHT22;65740;52.464;13.446;2023-02-27T09:29:01;17.80;36.50
76789;DHT22;65740;52.464;13.446;2023-02-27T09:31:28;17.90;37.30
76789;DHT22;65740;52.464;13.446;2023-02-27T09:33:55;17.80;36.70
76789;DHT22;65740;52.464;13.446;2023-02-27T09:36:22;17.90;36.80
76789;DHT22;65740;52.464;13.446;2023-02-27T09:38:48;17.90;36.90
76789;DHT22;65740;52.464;13.446;2023-02-27T09:44:24;17.80;36.70
76789;DHT22;65740;52.464;13.446;2023-02-27T09:46:51;17.80;36.70
76789;DHT22;65740;52.464;13.446;2023-02-27T09:49:20;17.90;36.80
76789;DHT22;65740;52.464;13.446;2023-02-27T09:51:47;17.90;36.80
76789;DHT22;65740;52.464;13.446;2023-02-27T09:54:15;17.90;36.80
76789;DHT22;65740;52.464;13.446;2023-02-27T09:56:56;17.90;36.80
76789;DHT22;65740;52.464;13.446;2023-02-27T09:59:39;17.90;36.80
76789;DHT22;65740;52.464;13.446;2023-02-27T10:07:39;18.00;36.90
76789;DHT22;65740;52.464;13.446;2023-02-27T10:12:49;18.00;37.00
76789;DHT22;65740;52.464;13.446;2023-02-27T10:15:46;18.00;37.00
76789;DHT22;65740;52.464;13.446;2023-02-27T10:18:20;18.00;37.10
76789;DHT22;65740;52.464;13.446;2023-02-27T10:20:55;18.10;37.20
76789;DHT22;65740;52.464;13.446;2023-02-27T10:23:39;18.10;37.30
76789;DHT22;65740;52.464;13.446;2023-02-27T10:26:10;18.10;37.40
76789;DHT22;65740;52.464;13.446;2023-02-27T10:28:38;18.10;37.50
76789;DHT22;65740;52.464;13.446;2023-02-27T10:31:14;18.10;37.90
76789;DHT22;65740;52.464;13.446;2023-02-27T10:33:42;18.10;37.70
76789;DHT22;65740;52.464;13.446;2023-02-27T10:36:09;18.10;37.90
76789;DHT22;65740;52.464;13.446;2023-02-27T10:38:43;18.10;38.00
76789;DHT22;65740;52.464;13.446;2023-02-27T10:41:13;18.10;38.00
76789;DHT22;65740;52.464;13.446;2023-02-27T10:43:40;18.20;38.10
76789;DHT22;65740;52.464;13.446;2023-02-27T10:46:12;18.20;38.10
76789;DHT22;65740;52.464;13.446;2023-02-27T10:48:39;18.10;38.20
76789;DHT22;65740;52.464;13.446;2023-02-27T10:51:29;18.10;38.20
76789;DHT22;65740;52.464;13.446;2023-02-27T10:54:28;18.10;38.40
76789;DHT22;65740;52.464;13.446;2023-02-27T10:57:01;18.10;38.30
76789;DHT22;65740;52.464;13.446;2023-02-27T10:59:32;18.10;38.60
76789;DHT22;65740;52.464;13.446;2023-02-27T11:02:03;18.10;38.50
76789;DHT22;65740;52.464;13.446;2023-02-27T11:04:36;18.20;38.70
76789;DHT22;65740;52.464;13.446;2023-02-27T11:07:11;18.10;39.00
76789;DHT22;65740;52.464;13.446;2023-02-27T11:09:40;18.10;39.00
76789;DHT22;65740;52.464;13.446;2023-02-27T11:12:31;18.10;39.10
76789;DHT22;65740;52.464;13.446;2023-02-27T11:15:03;18.10;39.00
76789;DHT22;65740;52.464;13.446;2023-02-27T11:17:45;18.20;39.50
76789;DHT22;65740;52.464;13.446;2023-02-27T11:20:31;18.20;39.50
76789;DHT22;65740;52.464;13.446;2023-02-27T11:23:15;18.30;40.00
76789;DHT22;65740;52.464;13.446;2023-02-27T11:25:42;18.30;40.20
76789;DHT22;65740;52.464;13.446;2023-02-27T11:30:55;18.40;40.30
76789;DHT22;65740;52.464;13.446;2023-02-27T11:33:21;18.40;40.40
76789;DHT22;65740;52.464;13.446;2023-02-27T11:35:52;18.40;40.50
76789;DHT22;65740;52.464;13.446;2023-02-27T11:38:21;18.40;40.50
76789;DHT22;65740;52.464;13.446;2023-02-27T11:40:54;18.40;40.10
76789;DHT22;65740;52.464;13.446;2023-02-27T11:43:30;18.40;40.70
76789;DHT22;65740;52.464;13.446;2023-02-27T11:51:07;18.50;40.90
76789;DHT22;65740;52.464;13.446;2023-02-27T11:56:52;18.50;41.10
76789;DHT22;65740;52.464;13.446;2023-02-27T11:59:24;18.50;40.80
76789;DHT22;65740;52.464;13.446;2023-02-27T12:04:58;18.60;40.90
76789;DHT22;65740;52.464;13.446;2023-02-27T12:10:13;18.50;41.00
76789;DHT22;65740;52.464;13.446;2023-02-27T12:12:54;18.60;41.00
76789;DHT22;65740;52.464;13.446;2023-02-27T12:18:26;18.60;41.60
76789;DHT22;65740;52.464;13.446;2023-02-27T12:26:24;18.70;41.10
76789;DHT22;65740;52.464;13.446;2023-02-27T12:34:22;18.80;41.50
76789;DHT22;65740;52.464;13.446;2023-02-27T12:36:52;18.80;42.30
76789;DHT22;65740;52.464;13.446;2023-02-27T12:39:22;18.80;41.80
76789;DHT22;65740;52.464;13.446;2023-02-27T12:47:01;18.90;42.00
76789;DHT22;65740;52.464;13.446;2023-02-27T12:49:42;18.90;42.00
76789;DHT22;65740;52.464;13.446;2023-02-27T12:55:22;18.90;42.00
76789;DHT22;65740;52.464;13.446;2023-02-27T13:01:00;19.00;42.30
76789;DHT22;65740;52.464;13.446;2023-02-27T13:09:19;19.00;42.20
76789;DHT22;65740;52.464;13.446;2023-02-27T13:14:45;19.10;42.40
76789;DHT22;65740;52.464;13.446;2023-02-27T13:17:24;19.10;43.00
76789;DHT22;65740;52.464;13.446;2023-02-27T13:19:56;19.10;42.40
76789;DHT22;65740;52.464;13.446;2023-02-27T13:22:52;19.10;42.50
76789;DHT22;65740;52.464;13.446;2023-02-27T13:25:22;19.10;42.50
76789;DHT22;65740;52.464;13.446;2023-02-27T13:28:01;19.20;42.80
76789;DHT22;65740;52.464;13.446;2023-02-27T13:30:34;19.30;42.80
76789;DHT22;65740;52.464;13.446;2023-02-27T13:38:41;19.30;43.10
76789;DHT22;65740;52.464;13.446;2023-02-27T13:43:50;19.30;42.90
76789;DHT22;65740;52.464;13.446;2023-02-27T13:46:24;19.40;43.00
76789;DHT22;65740;52.464;13.446;2023-02-27T13:48:52;19.40;42.80
76789;DHT22;65740;52.464;13.446;2023-02-27T13:57:05;19.50;42.70
76789;DHT22;65740;52.464;13.446;2023-02-27T13:59:39;19.50;42.70
76789;DHT22;65740;52.464;13.446;2023-02-27T14:04:49;19.50;42.90
76789;DHT22;65740;52.464;13.446;2023-02-27T14:07:21;19.50;42.70
76789;DHT22;65740;52.464;13.446;2023-02-27T14:10:00;19.60;42.90
76789;DHT22;65740;52.464;13.446;2023-02-27T14:14:53;19.60;42.80
76789;DHT22;65740;52.464;13.446;2023-02-27T14:20:46;19.60;43.30
76789;DHT22;65740;52.464;13.446;2023-02-27T14:28:21;19.60;43.00
76789;DHT22;65740;52.464;13.446;2023-02-27T14:33:25;19.70;42.40
76789;DHT22;65740;52.464;13.446;2023-02-27T14:36:00;19.70;43.00
76789;DHT22;65740;52.464;13.446;2023-02-27T14:38:27;19.70;42.70
76789;DHT22;65740;52.464;13.446;2023-02-27T14:41:51;19.70;43.20
76789;DHT22;65740;52.464;13.446;2023-02-27T14:43:56;19.70;43.20
76789;DHT22;65740;52.464;13.446;2023-02-27T14:46:35;19.70;43.20
76789;DHT22;65740;52.464;13.446;2023-02-27T14:49:15;19.70;43.20
76789;DHT22;65740;52.464;13.446;2023-02-27T14:51:42;19.70;43.50
76789;DHT22;65740;52.464;13.446;2023-02-27T14:54:23;19.70;43.30
76789;DHT22;65740;52.464;13.446;2023-02-27T14:57:01;19.80;43.50
76789;DHT22;65740;52.464;13.446;2023-02-27T14:59:51;19.80;43.30
76789;DHT22;65740;52.464;13.446;2023-02-27T15:02:24;19.80;43.10
76789;DHT22;65740;52.464;13.446;2023-02-27T15:05:11;19.90;43.30
76789;DHT22;65740;52.464;13.446;2023-02-27T15:07:38;19.90;43.30
76789;DHT22;65740;52.464;13.446;2023-02-27T15:10:06;19.90;43.10
76789;DHT22;65740;52.464;13.446;2023-02-27T15:12:37;19.80;43.30
76789;DHT22;65740;52.464;13.446;2023-02-27T15:15:05;19.80;43.20
76789;DHT22;65740;52.464;13.446;2023-02-27T15:17:43;19.80;43.30
76789;DHT22;65740;52.464;13.446;2023-02-27T15:20:26;19.80;44.30
76789;DHT22;65740;52.464;13.446;2023-02-27T15:22:58;19.90;43.40
76789;DHT22;65740;52.464;13.446;2023-02-27T15:27:59;19.90;43.20
76789;DHT22;65740;52.464;13.446;2023-02-27T15:30:25;19.90;43.10
76789;DHT22;65740;52.464;13.446;2023-02-27T15:32:52;19.90;43.30
76789;DHT22;65740;52.464;13.446;2023-02-27T15:35:21;20.00;43.40
76789;DHT22;65740;52.464;13.446;2023-02-27T15:37:57;19.80;43.60
76789;DHT22;65740;52.464;13.446;2023-02-27T15:40:26;19.80;43.50
76789;DHT22;65740;52.464;13.446;2023-02-27T15:42:53;19.80;43.50
76789;DHT22;65740;52.464;13.446;2023-02-27T15:45:23;19.90;43.50
76789;DHT22;65740;52.464;13.446;2023-02-27T15:47:49;19.90;44.50
76789;DHT22;65740;52.464;13.446;2023-02-27T15:55:20;19.90;43.90
76789;DHT22;65740;52.464;13.446;2023-02-27T15:57:46;19.90;43.60
76789;DHT22;65740;52.464;13.446;2023-02-27T16:00:15;19.90;43.70
76789;DHT22;65740;52.464;13.446;2023-02-27T16:02:48;19.90;43.70
76789;DHT22;65740;52.464;13.446;2023-02-27T16:05:29;19.80;43.80
76789;DHT22;65740;52.464;13.446;2023-02-27T16:07:58;19.80;43.60
76789;DHT22;65740;52.464;13.446;2023-02-27T16:10:29;19.90;43.40
76789;DHT22;65740;52.464;13.446;2023-02-27T16:13:30;19.90;43.50
76789;DHT22;65740;52.464;13.446;2023-02-27T16:16:01;19.90;43.80
76789;DHT22;65740;52.464;13.446;2023-02-27T16:18:37;19.90;43.60
76789;DHT22;65740;52.464;13.446;2023-02-27T16:21:10;19.90;43.40
76789;DHT22;65740;52.464;13.446;2023-02-27T16:23:36;19.90;43.30
76789;DHT22;65740;52.464;13.446;2023-02-27T16:28:55;19.90;43.20
76789;DHT22;65740;52.464;13.446;2023-02-27T16:34:23;20.00;43.50
76789;DHT22;65740;52.464;13.446;2023-02-27T16:36:54;19.90;43.50
76789;DHT22;65740;52.464;13.446;2023-02-27T16:39:21;20.00;43.20
76789;DHT22;65740;52.464;13.446;2023-02-27T16:41:48;20.00;43.50
76789;DHT22;65740;52.464;13.446;2023-02-27T16:44:14;20.00;43.20
76789;DHT22;65740;52.464;13.446;2023-02-27T16:46:40;19.90;43.20
76789;DHT22;65740;52.464;13.446;2023-02-27T16:51:45;20.00;43.10
76789;DHT22;65740;52.464;13.446;2023-02-27T16:54:10;20.00;43.50
76789;DHT22;65740;52.464;13.446;2023-02-27T16:56:38;19.90;43.60
76789;DHT22;65740;52.464;13.446;2023-02-27T16:59:04;19.90;43.20
76789;DHT22;65740;52.464;13.446;2023-02-27T17:01:29;20.00;43.20
76789;DHT22;65740;52.464;13.446;2023-02-27T17:03:55;20.00;43.10
76789;DHT22;65740;52.464;13.446;2023-02-27T17:06:20;19.90;43.10
76789;DHT22;65740;52.464;13.446;2023-02-27T17:08:46;20.00;43.10
76789;DHT22;65740;52.464;13.446;2023-02-27T17:11:12;20.00;43.20
76789;DHT22;65740;52.464;13.446;2023-02-27T17:13:37;20.00;43.30
76789;DHT22;65740;52.464;13.446;2023-02-27T17:16:04;20.00;43.20
76789;DHT22;65740;52.464;13.446;2023-02-27T17:18:30;20.00;43.10
76789;DHT22;65740;52.464;13.446;2023-02-27T17:20:59;19.90;43.10
76789;DHT22;65740;52.464;13.446;2023-02-27T17:23:25;19.90;43.20
76789;DHT22;65740;52.464;13.446;2023-02-27T17:25:53;19.90;43.10
76789;DHT22;65740;52.464;13.446;2023-02-27T17:28:20;19.90;43.20
76789;DHT22;65740;52.464;13.446;2023-02-27T17:30:46;19.90;42.90
76789;DHT22;65740;52.464;13.446;2023-02-27T17:33:11;19.90;43.20
76789;DHT22;65740;52.464;13.446;2023-02-27T17:35:37;19.90;43.00
76789;DHT22;65740;52.464;13.446;2023-02-27T17:38:03;19.90;42.90
76789;DHT22;65740;52.464;13.446;2023-02-27T17:40:28;19.90;42.80
76789;DHT22;65740;52.464;13.446;2023-02-27T17:42:54;19.90;42.80
76789;DHT22;65740;52.464;13.446;2023-02-27T17:45:20;19.80;42.90
76789;DHT22;65740;52.464;13.446;2023-02-27T17:47:46;19.70;43.70
76789;DHT22;65740;52.464;13.446;2023-02-27T17:50:13;19.80;42.90
76789;DHT22;65740;52.464;13.446;2023-02-27T17:52:38;19.70;42.90
76789;DHT22;65740;52.464;13.446;2023-02-27T17:55:05;19.80;42.90
76789;DHT22;65740;52.464;13.446;2023-02-27T17:57:37;19.70;42.80
76789;DHT22;65740;52.464;13.446;2023-02-27T18:00:07;19.70;42.90
76789;DHT22;65740;52.464;13.446;2023-02-27T18:02:34;19.80;42.80
76789;DHT22;65740;52.464;13.446;2023-02-27T18:05:00;19.70;42.80
76789;DHT22;65740;52.464;13.446;2023-02-27T18:07:26;19.70;42.70
76789;DHT22;65740;52.464;13.446;2023-02-27T18:09:52;19.70;42.70
76789;DHT22;65740;52.464;13.446;2023-02-27T18:12:17;19.70;42.80
76789;DHT22;65740;52.464;13.446;2023-02-27T18:14:43;19.70;42.80
76789;DHT22;65740;52.464;13.446;2023-02-27T18:17:09;19.70;43.00